NEODyS-2

Near Earth Objects - Dynamic Site
NEODyS ∴ Observatories ∴ Site 691 ∴ Obs & residuals
Contact »
691  ▹ 
OBSERVATIONS AND RESIDUALS

691-Steward Observatory, Kitt Peak-Spacewatch

Detections | Residuals | Detections & Residuals

[1-200] [201-400] [401-600] [601-800] [801-1000] [1001-1200] [1201-1400] [1401-1600] [1601-1800] [1801-2000] [2001-2200] [2201-2400] [2401-2600] [2601-2800] [2801-3000] [3001-3200] [3201-3400] [3401-3600] [3601-3800] [3801-4000] [4001-4200] [4201-4400] [4401-4600] [4601-4800] [4801-5000] [5001-5200] [5201-5400] [5401-5600] [5601-5800] [5801-6000] [6001-6200] [6201-6400] [6401-6600] [6601-6800] [6801-7000] [7001-7200] [7201-7400] [7401-7600] [7601-7800] [7801-8000] [8001-8200] [8201-8400] [8401-8600] [8601-8800] [8801-9000] [9001-9200] [9201-9400] [9401-9600] [9601-9800] [9801-10000] [10001-10200] [10201-10400] [10401-10600] [10601-10800] [10801-11000] [11001-11200] [11201-11400] [11401-11600] [11601-11800] [11801-12000] [12001-12200] [12201-12400] [12401-12600] [12601-12800] [12801-13000] [13001-13200] [13201-13400] [13401-13600] [13601-13800] [13801-14000] [14001-14200] [14201-14400] [14401-14600] [14601-14800] [14801-15000] [15001-15200] [15201-15400] [15401-15600] [15601-15800] [15801-16000] [16001-16200] [16201-16400] [16401-16600] [16601-16800] [16801-17000] [17001-17200] [17201-17400] [17401-17600] [17601-17800] [17801-18000] [18001-18200] [18201-18400] [18401-18600] [18601-18800] [18801-19000] [19001-19200] [19201-19400] [19401-19600] [19601-19800] [19801-20000] [20001-20200] [20201-20400] [20401-20600] [20601-20800] [20801-21000] [21001-21200] [21201-21400] [21401-21600] [21601-21800] [21801-22000] [22001-22200] [22201-22400] [22401-22600] [22601-22800] [22801-23000] [23001-23200] [23201-23400] [23401-23600] [23601-23800] [23801-24000] [24001-24200] [24201-24400] [24401-24600] [24601-24800] [24801-25000] [25001-25200] [25201-25400] [25401-25600] [25601-25800] [25801-26000] [26001-26200] [26201-26400] [26401-26600] [26601-26800] [26801-27000] [27001-27200] [27201-27400] [27401-27600] [27601-27800] [27801-28000] [28001-28200] [28201-28400] [28401-28600] [28601-28800] [28801-29000] [29001-29200] [29201-29400] [29401-29600] [29601-29800] [29801-30000] [30001-30200] [30201-30400] [30401-30600] [30601-30800] [30801-31000] [31001-31200] [31201-31400] [31401-31600] [31601-31800] [31801-32000] [32001-32200] [32201-32400] [32401-32600] [32601-32800] [32801-33000] [33001-33200] [33201-33400] [33401-33600] [33601-33800] [33801-34000] [34001-34200] [34201-34400] [34401-34600] [34601-34800] [34801-35000] [35001-35200] [35201-35400] [35401-35600] [35601-35800] [35801-36000] [36001-36200] [36201-36400] [36401-36600] [36601-36800] [36801-37000] [37001-37200] [37201-37400] [37401-37600] [37601-37800] [37801-38000] [38001-38200] [38201-38400] [38401-38600] [38601-38800] [38801-39000] [39001-39200] [39201-39400] [39401-39600] [39601-39800] [39801-40000] [40001-40200] [40201-40400] [40401-40600] [40601-40800] [40801-41000] [41001-41200] [41201-41400] [41401-41600] [41601-41800] [41801-42000] [42001-42200] [42201-42400] [42401-42600] [42601-42800] [42801-43000] [43001-43200] [43201-43400] [43401-43600] [43601-43800] [43801-44000] [44001-44200] [44201-44400] [44401-44600] [44601-44800] [44801-45000] [45001-45200] [45201-45400] [45401-45600] [45601-45800] [45801-46000] [46001-46200] [46201-46400] [46401-46600] [46601-46800] [46801-47000] [47001-47200] [47201-47400] [47401-47600] [47601-47800] [47801-48000] [48001-48200] [48201-48400] [48401-48600] [48601-48800] [48801-49000] [49001-49200] [49201-49400] [49401-49600] [49601-49800] [49801-50000] [50001-50200] [50201-50388]

Designation T Tech N Date Right Ascension Declination Apparent Magnitude Star Catalog Site code χ Used A Used M
yr-mo-day precision hr:min:sec precision rms F bias residual deg min sec precision rms F bias residual mag/col rms residual
2005TK50 O C t 2005-10-09.17528 1.000E-05 00:34:41.660 1.500E-01 0.612 F -0.253 -1.249 -03° 35' 01.00" 1.000E-01 0.612 F 0.493 0.519 20.1 V 0.70 c 691 0.00 Yes Yes
2005TK50 O C t 2005-10-09.17776 1.000E-05 00:34:39.020 1.500E-01 0.612 F -0.253 1.602 -03° 34' 35.20" 1.000E-01 0.612 F 0.493 -0.884 19.4 V 0.70 c 691 0.00 Yes Yes
2003SZ219 O C 2005-10-09.18526 1.000E-05 00:16:22.680 1.500E-01 0.500 F -0.249 0.050 -00° 37' 32.30" 1.000E-01 0.500 F 0.629 -0.241 18.0 V 0.70 0.44 c 691 0.49 Yes Yes
2005TK50 O C t 2005-10-09.19512 1.000E-05 00:34:18.450 1.500E-01 0.612 F -0.253 -0.386 -03° 31' 19.30" 1.000E-01 0.612 F 0.493 0.404 19.3 V 0.70 c 691 0.00 Yes Yes
2005SW4 O C 2005-10-09.34428 1.000E-05 01:43:40.490 1.500E-01 0.500 F -0.011 -0.063 +14° 23' 29.40" 1.000E-01 0.500 F 0.445 -0.277 19.9 V 0.70 0.11 c 691 0.57 Yes Yes
2005SW4 O C 2005-10-09.36159 1.000E-05 01:43:40.020 1.500E-01 0.500 F -0.011 0.233 +14° 23' 46.30" 1.000E-01 0.500 F 0.445 -0.106 19.8 V 0.70 0.01 c 691 0.52 Yes Yes
2005SW4 O C 2005-10-09.37884 1.000E-05 01:43:39.520 1.500E-01 0.500 F -0.011 0.041 +14° 24' 02.80" 1.000E-01 0.500 F 0.445 -0.234 19.9 V 0.70 0.11 c 691 0.48 Yes Yes
2005TK50 O C t 2005-10-09.38613 1.000E-05 00:29:25.070 1.500E-01 0.612 F -0.173 0.645 -02° 45' 28.90" 1.000E-01 0.612 F 0.543 -0.837 19.4 V 0.70 c 691 0.00 Yes Yes
2005TK50 O C t 2005-10-09.38903 1.000E-05 00:29:19.670 1.500E-01 0.612 F -0.173 -0.195 -02° 44' 34.90" 1.000E-01 0.612 F 0.543 0.634 19.3 V 0.70 c 691 0.00 Yes Yes
2005TK50 O C t 2005-10-09.39202 1.000E-05 00:29:14.120 1.500E-01 0.612 F -0.173 -0.418 -02° 43' 40.80" 1.000E-01 0.612 F 0.543 0.164 19.3 V 0.70 c 691 0.00 Yes Yes
2005TH50 O C t 2005-10-09.41158 1.000E-05 02:22:10.810 1.500E-01 0.500 F -0.127 4.367 +14° 33' 09.70" 1.000E-01 0.500 F 0.316 1.555 20.2 V 0.70 0.54 c 691 7.17 No Yes
2005TH50 O C t 2005-10-09.42882 1.000E-05 02:21:23.740 1.500E-01 0.500 F -0.127 0.588 +14° 28' 33.10" 1.000E-01 0.500 F 0.316 0.939 19.4 V 0.70 -0.25 c 691 3.08 Yes Yes
2005TH50 O C t 2005-10-09.44956 1.000E-05 02:20:27.770 1.500E-01 0.500 F -0.105 -0.917 +14° 22' 58.20" 1.000E-01 0.500 F 0.483 -0.158 19.7 V 0.70 0.05 c 691 2.63 Yes Yes
2005TF50 O C 2005-10-10.24125 1.000E-05 01:09:05.330 1.500E-01 0.500 F -0.042 -0.477 +16° 13' 56.50" 1.000E-01 0.500 F 0.426 -0.152 21.1 V 0.70 -0.04 c 691 1.07 Yes Yes
2003EF54 O C 2005-10-10.24125 1.000E-05 01:12:41.370 1.500E-01 0.500 F -0.077 0.024 +15° 42' 30.30" 1.000E-01 0.500 F 0.356 -0.647 20.9 V 0.70 0.58 c 691 1.30 Yes Yes
2005SH19 O C 2005-10-10.24604 1.000E-05 01:25:25.030 1.500E-01 0.500 F -0.063 -0.620 +16° 09' 53.80" 1.000E-01 0.500 F 0.376 -0.046 20.8 V 0.70 0.41 c 691 1.25 Yes Yes
2005TF50 O C 2005-10-10.25861 1.000E-05 01:09:01.990 1.500E-01 0.500 F -0.042 0.268 +16° 13' 50.40" 1.000E-01 0.500 F 0.426 -0.303 21.2 V 0.70 0.06 c 691 0.85 Yes Yes
2003EF54 O C 2005-10-10.25861 1.000E-05 01:12:39.280 1.500E-01 0.500 F -0.077 0.232 +15° 42' 14.50" 1.000E-01 0.500 F 0.356 -0.347 20.2 V 0.70 -0.12 c 691 0.84 Yes Yes
2005SH19 O C 2005-10-10.26341 1.000E-05 01:25:22.790 1.500E-01 0.500 F -0.063 -0.332 +16° 09' 52.50" 1.000E-01 0.500 F 0.376 0.066 20.7 V 0.70 0.31 c 691 0.68 Yes Yes
2005TF50 O C 2005-10-10.27591 1.000E-05 01:08:58.570 1.500E-01 0.500 F -0.042 -0.239 +16° 13' 44.30" 1.000E-01 0.500 F 0.426 -0.430 21.1 V 0.70 -0.04 c 691 1.05 Yes Yes
2003EF54 O C 2005-10-10.27591 1.000E-05 01:12:37.130 1.500E-01 0.500 F -0.077 -0.495 +15° 41' 58.60" 1.000E-01 0.500 F 0.356 -0.165 20.6 V 0.70 0.28 c 691 1.05 Yes Yes
2005SH19 O C 2005-10-10.28076 1.000E-05 01:25:20.540 1.500E-01 0.500 F -0.063 -0.197 +16° 09' 51.40" 1.000E-01 0.500 F 0.376 0.396 20.7 V 0.70 0.31 c 691 0.89 Yes Yes
Belenus O C 2005-10-10.36424 1.000E-05 02:25:44.550 1.500E-01 0.500 F -0.024 -0.236 +19° 31' 44.50" 1.000E-01 0.500 F 0.506 -0.039 19.0 V 0.70 0.01 c 691 0.48 Yes Yes
Belenus O C 2005-10-10.38159 1.000E-05 02:25:43.660 1.500E-01 0.500 F -0.024 -0.474 +19° 31' 44.30" 1.000E-01 0.500 F 0.506 -0.137 19.1 V 0.70 0.11 c 691 0.99 Yes Yes
Belenus O C 2005-10-10.39898 1.000E-05 02:25:42.800 1.500E-01 0.500 F -0.024 -0.268 +19° 31' 44.10" 1.000E-01 0.500 F 0.506 -0.183 19.4 V 0.70 0.41 c 691 0.65 Yes Yes
Beltrovata O C 2005-10-10.42604 1.000E-05 08:07:26.550 1.500E-01 0.500 F 0.012 0.499 +21° 29' 44.70" 1.000E-01 0.500 F 0.345 0.004 20.4 V 0.70 0.60 c 691 1.00 Yes Yes
Beltrovata O C 2005-10-10.43844 1.000E-05 08:07:27.300 1.500E-01 0.500 F 0.012 -0.365 +21° 29' 41.60" 1.000E-01 0.500 F 0.345 -0.010 20.5 V 0.70 0.70 c 691 0.73 Yes Yes
2005TH50 O C t 2005-10-11.28154 1.000E-05 01:16:26.940 1.500E-01 0.500 F -0.079 -3.134 +06° 55' 48.10" 1.000E-01 0.500 F 0.475 -1.746 19.0 V 0.70 -0.21 c 691 5.24 No Yes
2005TH50 O C t 2005-10-11.29879 1.000E-05 01:15:53.320 1.500E-01 0.500 F -0.079 0.495 +06° 52' 04.70" 1.000E-01 0.500 F 0.475 -0.890 19.8 V 0.70 0.60 c 691 2.23 Yes Yes
2005TH50 O C t 2005-10-11.31623 1.000E-05 01:15:19.270 1.500E-01 0.500 F -0.079 1.756 +06° 48' 19.60" 1.000E-01 0.500 F 0.475 0.832 19.6 V 0.70 0.41 c 691 3.25 No Yes
2016GU221 O C 2005-10-12.09011 1.000E-05 23:33:01.550 1.500E-01 0.612 F -0.178 0.620 -04° 21' 23.30" 1.000E-01 0.612 F 0.529 0.019 20.5 V 0.70 -0.16 c 691 1.06 Yes Yes
2016GU221 O C 2005-10-12.09257 1.000E-05 23:33:01.360 1.500E-01 0.612 F -0.178 -0.200 -04° 21' 20.50" 1.000E-01 0.612 F 0.529 0.032 20.9 V 0.70 0.24 c 691 0.34 Yes Yes
2005QY151 O C 2005-10-12.09516 1.000E-05 23:33:44.860 1.500E-01 0.500 F -0.224 0.223 -06° 36' 56.10" 1.000E-01 0.500 F 0.566 0.082 19.2 V 0.70 0.50 c 691 0.48 Yes Yes
2016GU221 O C 2005-10-12.10556 1.000E-05 23:33:00.630 1.500E-01 0.612 F -0.178 -0.407 -04° 21' 05.50" 1.000E-01 0.612 F 0.529 0.316 20.8 V 0.70 0.13 c 691 0.85 Yes Yes
2016GU221 O C 2005-10-12.10809 1.000E-05 23:33:00.530 1.500E-01 0.612 F -0.178 0.191 -04° 21' 03.00" 1.000E-01 0.612 F 0.529 -0.051 21.1 V 0.70 0.43 c 691 0.33 Yes Yes
2005QY151 O C 2005-10-12.11057 1.000E-05 23:33:42.540 1.500E-01 0.500 F -0.224 0.057 -06° 36' 56.00" 1.000E-01 0.500 F 0.566 -0.133 19.1 V 0.70 0.40 c 691 0.29 Yes Yes
2016GU221 O C 2005-10-12.12153 1.000E-05 23:32:59.790 1.500E-01 0.612 F -0.178 0.279 -04° 20' 47.90" 1.000E-01 0.612 F 0.529 -0.180 20.6 V 0.70 -0.07 c 691 0.55 Yes Yes
2016GU221 O C 2005-10-12.12399 1.000E-05 23:32:59.610 1.500E-01 0.612 F -0.178 -0.366 -04° 20' 44.50" 1.000E-01 0.612 F 0.529 0.432 20.7 V 0.70 0.03 c 691 0.94 Yes Yes
2005QY151 O C 2005-10-12.12660 1.000E-05 23:33:40.140 1.500E-01 0.500 F -0.224 0.162 -06° 36' 55.50" 1.000E-01 0.500 F 0.566 0.025 19.0 V 0.70 0.30 c 691 0.33 Yes Yes
Orpheus O C 2005-10-12.15055 1.000E-05 00:16:12.950 1.500E-01 0.500 F 0.038 0.089 +00° 18' 56.60" 1.000E-01 0.500 F 0.551 -0.193 17.9 V 0.70 0.32 c 691 0.42 Yes Yes
Orpheus O C 2005-10-12.16786 1.000E-05 00:16:10.050 1.500E-01 0.500 F 0.038 -0.107 +00° 18' 28.80" 1.000E-01 0.500 F 0.551 -0.096 18.0 V 0.70 0.42 c 691 0.29 Yes Yes
Orpheus O C 2005-10-12.18533 1.000E-05 00:16:07.140 1.500E-01 0.500 F 0.038 0.145 +00° 18' 00.60" 1.000E-01 0.500 F 0.551 -0.134 17.9 V 0.70 0.32 c 691 0.39 Yes Yes
1999GJ2 O C 2005-10-12.30701 1.000E-05 01:32:17.040 1.500E-01 0.500 F -0.304 -0.036 +06° 04' 01.00" 1.000E-01 0.500 F 0.249 0.081 15.4 V 0.70 0.25 c 691 0.18 Yes Yes
1999GJ2 O C 2005-10-12.32439 1.000E-05 01:32:16.710 1.500E-01 0.500 F -0.304 -0.116 +06° 03' 18.70" 1.000E-01 0.500 F 0.249 0.005 15.3 V 0.70 0.15 c 691 0.24 Yes Yes
1999GJ2 O C 2005-10-12.34177 1.000E-05 01:32:16.300 1.500E-01 0.500 F -0.304 -1.404 +06° 02' 36.40" 1.000E-01 0.500 F 0.249 -0.049 15.1 V 0.70 -0.05 c 691 2.83 Yes Yes
1991WA O C 2005-10-12.42595 1.000E-05 07:48:04.540 1.500E-01 0.500 F 0.461 0.179 +18° 21' 08.80" 1.000E-01 0.500 F 0.462 0.152 19.8 V 0.70 0.74 c 691 0.47 Yes Yes
1991WA O C 2005-10-12.43840 1.000E-05 07:48:04.700 1.500E-01 0.500 F 0.461 0.024 +18° 21' 30.60" 1.000E-01 0.500 F 0.462 -0.089 19.8 V 0.70 0.74 c 691 0.19 Yes Yes
1991WA O C 2005-10-12.45086 1.000E-05 07:48:04.860 1.500E-01 0.500 F 0.461 -0.090 +18° 21' 52.70" 1.000E-01 0.500 F 0.462 -0.041 19.7 V 0.70 0.64 c 691 0.20 Yes Yes
1998MZ O C 2005-10-12.48211 1.000E-05 02:38:37.070 1.500E-01 0.500 F -0.196 0.245 +15° 04' 14.60" 1.000E-01 0.500 F 0.137 -0.281 19.6 V 0.70 -0.04 c 691 0.74 Yes Yes
1998MZ O C 2005-10-12.49951 1.000E-05 02:38:35.400 1.500E-01 0.500 F -0.196 -0.020 +15° 04' 06.90" 1.000E-01 0.500 F 0.137 0.050 19.5 V 0.70 -0.14 c 691 0.11 Yes Yes
1998MZ O C 2005-10-12.51689 1.000E-05 02:38:33.760 1.500E-01 0.500 F -0.196 0.021 +15° 03' 58.60" 1.000E-01 0.500 F 0.137 -0.192 19.5 V 0.70 -0.14 c 691 0.38 Yes Yes
1996XB27 O C 2005-10-13.15647 1.000E-05 23:50:25.690 1.500E-01 0.500 F -0.179 0.578 -04° 28' 26.60" 1.000E-01 0.500 F 0.495 -0.286 20.7 V 0.70 0.32 c 691 1.30 Yes Yes
2005TV51 O C t 2005-10-13.15647 1.000E-05 23:50:48.260 1.500E-01 0.500 F -0.105 -0.561 -05° 19' 59.40" 1.000E-01 0.500 F 0.472 2.397 20.4 V 0.70 1.94 c 691 4.38 No No
1996XB27 O C 2005-10-13.17194 1.000E-05 23:50:24.760 1.500E-01 0.500 F -0.179 0.010 -04° 28' 38.00" 1.000E-01 0.500 F 0.495 -0.487 20.6 V 0.70 0.22 c 691 0.98 Yes Yes
2005TV51 O C t 2005-10-13.17194 1.000E-05 23:50:50.440 1.500E-01 0.500 F -0.179 0.063 -05° 05' 14.50" 1.000E-01 0.500 F 0.495 1.968 21.0 V 0.70 2.56 c 691 3.51 No No
1996XB27 O C 2005-10-13.18747 1.000E-05 23:50:23.860 1.500E-01 0.500 F -0.179 0.048 -04° 28' 49.40" 1.000E-01 0.500 F 0.495 -0.674 20.7 V 0.70 0.32 c 691 1.36 Yes Yes
2005TV51 O C t 2005-10-13.18747 1.000E-05 23:50:52.450 1.500E-01 0.500 F -0.179 -0.174 -04° 50' 20.40" 1.000E-01 0.500 F 0.495 -0.482 19.8 V 0.70 1.37 c 691 1.18 Yes Yes
2019TG5 O C 2005-10-13.20030 1.000E-05 00:42:09.700 1.500E-01 0.500 F -0.263 0.329 +11° 26' 31.20" 1.000E-01 0.500 F 0.349 0.048 20.2 V 0.70 -0.30 c 691 0.72 Yes Yes
2019TG5 O C 2005-10-13.21763 1.000E-05 00:42:09.190 1.500E-01 0.500 F -0.263 -0.224 +11° 25' 53.30" 1.000E-01 0.500 F 0.349 0.345 20.1 V 0.70 -0.40 c 691 0.87 Yes Yes
2019TG5 O C 2005-10-13.23504 1.000E-05 00:42:08.730 1.500E-01 0.500 F -0.128 -0.080 +11° 25' 14.80" 1.000E-01 0.500 F 0.388 0.202 20.2 V 0.70 -0.30 c 691 0.46 Yes Yes
2005SW4 O C 2005-10-13.31253 1.000E-05 01:42:02.740 1.500E-01 0.500 F 0.001 -0.094 +15° 29' 42.10" 1.000E-01 0.500 F 0.389 0.035 19.6 V 0.70 0.06 c 691 0.20 Yes Yes
2005SW4 O C 2005-10-13.33106 1.000E-05 01:42:02.090 1.500E-01 0.500 F 0.001 0.037 +15° 30' 01.10" 1.000E-01 0.500 F 0.389 -0.096 19.7 V 0.70 0.16 c 691 0.21 Yes Yes
2005SW4 O C 2005-10-13.34839 1.000E-05 01:42:01.460 1.500E-01 0.500 F 0.001 -0.166 +15° 30' 19.00" 1.000E-01 0.500 F 0.389 -0.036 19.6 V 0.70 0.06 c 691 0.34 Yes Yes
2002HW O C 2005-10-22.12381 1.000E-05 01:44:38.080 1.500E-01 0.500 F -0.022 -0.200 +08° 25' 02.80" 1.000E-01 0.500 F 0.403 -0.207 18.5 V 0.70 0.53 c 691 0.58 Yes Yes
2002HW O C 2005-10-22.13927 1.000E-05 01:44:36.580 1.500E-01 0.500 F -0.022 -0.238 +08° 25' 07.70" 1.000E-01 0.500 F 0.403 -0.147 18.4 V 0.70 0.43 c 691 0.56 Yes Yes
2002HW O C 2005-10-22.15480 1.000E-05 01:44:35.080 1.500E-01 0.500 F -0.022 0.007 +08° 25' 12.50" 1.000E-01 0.500 F 0.403 -0.197 18.4 V 0.70 0.44 c 691 0.40 Yes Yes
1998MZ O C 2005-10-22.16442 1.000E-05 02:19:20.050 1.500E-01 0.500 F -0.164 0.151 +13° 26' 48.40" 1.000E-01 0.500 F 0.396 0.314 18.9 V 0.70 0.16 c 691 0.71 Yes Yes
1998MZ O C 2005-10-22.18174 1.000E-05 02:19:17.380 1.500E-01 0.500 F -0.164 0.346 +13° 26' 35.10" 1.000E-01 0.500 F 0.396 0.236 18.9 V 0.70 0.16 c 691 0.84 Yes Yes
1998MZ O C 2005-10-22.19899 1.000E-05 02:19:14.680 1.500E-01 0.500 F -0.164 0.129 +13° 26' 21.80" 1.000E-01 0.500 F 0.396 0.146 18.9 V 0.70 0.16 c 691 0.40 Yes Yes
2005UK O C 2005-10-22.22397 1.000E-05 02:45:35.100 1.500E-01 0.500 F 0.090 -0.418 +23° 47' 29.50" 1.000E-01 0.500 F 0.274 -0.052 20.6 V 0.70 -0.69 c 691 0.84 Yes Yes
2005UE O C 2005-10-22.22876 1.000E-05 03:02:39.600 1.500E-01 0.500 F -0.176 0.189 +24° 39' 25.90" 1.000E-01 0.500 F 0.305 -0.056 19.7 V 0.70 0.23 c 691 0.40 Yes Yes
2005UF O C t 2005-10-22.23126 1.000E-05 03:05:57.040 1.500E-01 0.500 F -0.087 -0.964 +23° 35' 22.30" 1.000E-01 0.500 F 0.246 -0.659 18.6 V 0.70 0.22 c 691 2.79 Yes Yes
2005OW O C 2005-10-22.23623 1.000E-05 02:56:37.910 1.500E-01 0.500 F -0.227 -0.239 +22° 37' 00.70" 1.000E-01 0.500 F 0.591 0.101 19.7 V 0.70 -0.10 c 691 0.53 Yes Yes
2005UK O C 2005-10-22.24126 1.000E-05 02:45:33.530 1.500E-01 0.500 F 0.090 0.280 +23° 47' 06.40" 1.000E-01 0.500 F 0.274 -0.332 21.2 V 0.70 -0.09 c 691 0.88 Yes Yes
2005UE O C 2005-10-22.24612 1.000E-05 03:02:40.980 1.500E-01 0.500 F -0.176 0.055 +24° 39' 18.70" 1.000E-01 0.500 F 0.305 -0.084 19.6 V 0.70 0.13 c 691 0.20 Yes Yes
2005UF O C t 2005-10-22.24855 1.000E-05 03:06:57.870 1.500E-01 0.500 F -0.167 -0.288 +23° 33' 27.10" 1.000E-01 0.500 F 0.148 -0.205 17.9 V 0.70 -0.47 c 691 0.83 Yes Yes
2005OW O C 2005-10-22.25349 1.000E-05 02:56:36.790 1.500E-01 0.500 F -0.227 -0.110 +22° 36' 50.00" 1.000E-01 0.500 F 0.591 -0.033 19.8 V 0.70 0.00 c 691 0.24 Yes Yes
2005UK O C 2005-10-22.25848 1.000E-05 02:45:31.860 1.500E-01 0.500 F 0.090 -0.449 +23° 46' 43.00" 1.000E-01 0.500 F 0.274 -0.981 20.5 V 0.70 -0.78 c 691 2.16 Yes Yes
2005UE O C 2005-10-22.26341 1.000E-05 03:02:42.360 1.500E-01 0.500 F -0.176 0.167 +24° 39' 11.40" 1.000E-01 0.500 F 0.305 -0.143 19.7 V 0.70 0.23 c 691 0.44 Yes Yes
2005UF O C t 2005-10-22.26584 1.000E-05 03:07:59.250 1.500E-01 0.500 F -0.167 0.860 +23° 31' 27.10" 1.000E-01 0.500 F 0.148 -0.076 18.7 V 0.70 0.34 c 691 2.02 Yes Yes
2005OW O C 2005-10-22.27084 1.000E-05 02:56:35.650 1.500E-01 0.500 F -0.227 -0.026 +22° 36' 39.50" 1.000E-01 0.500 F 0.591 0.176 19.8 V 0.70 0.00 c 691 0.36 Yes Yes
2005UG O C 2005-10-22.29436 1.000E-05 03:19:50.690 1.500E-01 0.500 F -0.078 0.485 +11° 35' 39.50" 1.000E-01 0.500 F 0.272 0.226 20.5 V 0.70 -0.46 c 691 1.09 Yes Yes
2005UG O C 2005-10-22.31174 1.000E-05 03:19:55.520 1.500E-01 0.500 F -0.078 1.353 +11° 36' 18.60" 1.000E-01 0.500 F 0.272 0.444 20.7 V 0.70 -0.26 c 691 2.91 Yes Yes
2005UG O C 2005-10-22.32913 1.000E-05 03:20:00.200 1.500E-01 0.500 F -0.078 0.131 +11° 36' 56.90" 1.000E-01 0.500 F 0.272 -0.068 20.4 V 0.70 -0.56 c 691 0.30 Yes Yes
2005UH O C 2005-10-22.35045 1.000E-05 03:44:34.220 1.500E-01 0.500 F -0.086 0.127 +15° 22' 41.00" 1.000E-01 0.500 F 0.582 0.110 20.4 V 0.70 0.02 c 691 0.35 Yes Yes
2005UH O C 2005-10-22.36773 1.000E-05 03:44:31.540 1.500E-01 0.500 F -0.086 -0.365 +15° 23' 38.90" 1.000E-01 0.500 F 0.582 0.374 20.5 V 0.70 0.12 c 691 1.09 Yes Yes
2005UH O C 2005-10-22.38510 1.000E-05 03:44:28.910 1.500E-01 0.500 F -0.086 0.111 +15° 24' 36.20" 1.000E-01 0.500 F 0.582 -0.018 20.1 V 0.70 -0.29 c 691 0.23 Yes Yes
2005UL1 O C t 2005-10-24.43250 1.000E-05 04:07:36.030 1.500E-01 0.500 F -0.004 0.074 +16° 33' 57.10" 1.000E-01 0.500 F 0.280 -0.250 23.5 V 0.70 3.33 c 691 0.56 Yes No
2005UL1 O C t 2005-10-24.44995 1.000E-05 04:07:35.650 1.500E-01 0.500 F -0.004 0.068 +16° 36' 41.20" 1.000E-01 0.500 F 0.280 -0.989 21.4 V 0.70 1.23 c 691 2.13 Yes Yes
2005UL1 O C t 2005-10-24.46740 1.000E-05 04:07:35.300 1.500E-01 0.500 F -0.004 0.250 +16° 39' 26.40" 1.000E-01 0.500 F 0.280 -0.572 23.5 V 0.70 3.33 c 691 1.35 Yes No
2005UH O C 2005-10-25.31406 1.000E-05 03:38:22.120 1.500E-01 0.500 F -0.211 -0.526 +17° 53' 38.10" 1.000E-01 0.500 F 0.353 0.123 20.5 V 0.70 0.04 c 691 1.10 Yes Yes
2005UH O C 2005-10-25.33132 1.000E-05 03:38:19.660 1.500E-01 0.500 F -0.211 0.544 +17° 54' 26.50" 1.000E-01 0.500 F 0.353 -0.305 20.4 V 0.70 -0.06 c 691 1.27 Yes Yes
2005UH O C 2005-10-25.34864 1.000E-05 03:38:17.090 1.500E-01 0.500 F -0.211 0.307 +17° 55' 15.40" 1.000E-01 0.500 F 0.353 -0.159 20.7 V 0.70 0.24 c 691 0.71 Yes Yes
2008RY24 O C 2005-10-25.48626 1.000E-05 09:50:35.850 1.500E-01 0.500 F 0.471 -0.009 +13° 22' 06.70" 1.000E-01 0.500 F 0.374 -0.323 20.7 V 0.70 -0.11 c 691 0.65 Yes Yes
2005UH3 O C 2005-10-25.48876 1.000E-05 09:58:26.620 1.500E-01 0.500 F 0.302 -0.059 +14° 01' 23.50" 1.000E-01 0.500 F 0.349 -0.052 18.8 V 0.70 0.36 c 691 0.16 Yes Yes
2008RY24 O C 2005-10-25.49872 1.000E-05 09:50:37.730 1.500E-01 0.500 F 0.471 -0.146 +13° 21' 54.20" 1.000E-01 0.500 F 0.374 -0.366 20.9 V 0.70 0.09 c 691 0.79 Yes Yes
2005UH3 O C 2005-10-25.50122 1.000E-05 09:58:28.850 1.500E-01 0.500 F 0.302 -0.015 +14° 03' 00.80" 1.000E-01 0.500 F 0.349 0.169 18.7 V 0.70 0.26 c 691 0.36 Yes Yes
2008RY24 O C 2005-10-25.51125 1.000E-05 09:50:39.620 1.500E-01 0.500 F 0.471 -0.264 +13° 21' 42.00" 1.000E-01 0.500 F 0.374 -0.033 20.9 V 0.70 0.09 c 691 0.53 Yes Yes
2005UH3 O C 2005-10-25.51368 1.000E-05 09:58:31.070 1.500E-01 0.500 F 0.302 -0.044 +14° 04' 37.50" 1.000E-01 0.500 F 0.349 -0.192 18.7 V 0.70 0.26 c 691 0.42 Yes Yes
2002BY O C 2005-10-26.11796 1.000E-05 01:23:41.500 1.500E-01 0.500 F -0.227 -0.112 +09° 27' 09.80" 1.000E-01 0.500 F 0.163 -0.142 21.1 V 0.70 0.43 c 691 0.36 Yes Yes
2002BY O C 2005-10-26.13337 1.000E-05 01:23:40.340 1.500E-01 0.500 F -0.227 -0.695 +09° 27' 02.00" 1.000E-01 0.500 F 0.163 -0.224 21.1 V 0.70 0.43 c 691 1.47 Yes Yes
2002BY O C 2005-10-26.14877 1.000E-05 01:23:39.190 1.500E-01 0.500 F -0.227 -1.103 +09° 26' 53.50" 1.000E-01 0.500 F 0.163 -1.007 20.9 V 0.70 0.23 c 691 3.00 Yes Yes
2000GQ146 O C 2005-10-26.27739 1.000E-05 03:25:20.190 1.500E-01 0.500 F -0.253 -0.324 +23° 27' 11.60" 1.000E-01 0.500 F 0.389 0.051 17.6 V 0.70 0.39 c 691 0.66 Yes Yes
2000GQ146 O C 2005-10-26.29822 1.000E-05 03:25:16.840 1.500E-01 0.500 F -0.253 -0.500 +23° 27' 55.10" 1.000E-01 0.500 F 0.389 0.243 18.7 V 0.70 1.49 c 691 1.12 Yes Yes
2000GQ146 O C 2005-10-26.31576 1.000E-05 03:25:14.050 1.500E-01 0.500 F -0.253 -0.112 +23° 28' 31.10" 1.000E-01 0.500 F 0.389 -0.153 17.5 V 0.70 0.29 c 691 0.38 Yes Yes
2005UW3 O C t 2005-10-26.34484 1.000E-05 03:47:35.090 1.500E-01 0.500 F 0.036 0.257 +18° 24' 35.30" 1.000E-01 0.500 F 0.387 -2.073 20.2 V 0.70 1.75 c 691 3.65 No Yes
2005UW3 O C t 2005-10-26.36205 1.000E-05 03:47:39.580 1.500E-01 0.500 F 0.036 -0.396 +18° 16' 10.10" 1.000E-01 0.500 F 0.387 -3.449 19.4 V 0.70 0.95 c 691 6.11 No Yes
2005UG3 O C t 2005-10-26.38943 1.000E-05 04:14:08.860 1.500E-01 0.500 F -0.220 2.528 +13° 17' 49.00" 1.000E-01 0.500 F 0.248 -2.715 19.4 V 0.70 0.44 c 691 6.74 No Yes
1998EC3 O C 2005-10-26.39682 1.000E-05 04:25:07.840 1.500E-01 0.500 F -0.212 -0.352 +10° 13' 32.60" 1.000E-01 0.500 F 0.092 -0.138 21.3 V 0.70 -0.23 c 691 0.76 Yes Yes
2005UG3 O C t 2005-10-26.40702 1.000E-05 04:14:46.430 1.500E-01 0.500 F -0.220 2.438 +13° 12' 25.00" 1.000E-01 0.500 F 0.248 -2.188 19.2 V 0.70 0.23 c 691 5.94 No Yes
1998EC3 O C 2005-10-26.41451 1.000E-05 04:25:06.950 1.500E-01 0.500 F -0.212 0.163 +10° 13' 28.70" 1.000E-01 0.500 F 0.092 0.069 21.3 V 0.70 -0.23 c 691 0.36 Yes Yes
2005UG3 O C t 2005-10-26.42459 1.000E-05 04:15:24.250 1.500E-01 0.500 F -0.220 6.772 +13° 06' 57.50" 1.000E-01 0.500 F 0.248 -4.472 19.4 V 0.70 0.43 c 691 14.60 No Yes
1998EC3 O C 2005-10-26.43211 1.000E-05 04:25:06.030 1.500E-01 0.500 F -0.212 0.168 +10° 13' 23.80" 1.000E-01 0.500 F 0.092 -0.738 21.1 V 0.70 -0.43 c 691 1.52 Yes Yes
2005UH3 O C 2005-10-26.45071 1.000E-05 10:01:27.620 1.500E-01 0.500 F 0.298 -0.178 +16° 05' 57.40" 1.000E-01 0.500 F 0.315 0.760 18.9 V 0.70 0.49 c 691 1.65 Yes Yes
2005UH3 O C 2005-10-26.47437 1.000E-05 10:01:32.060 1.500E-01 0.500 F 0.298 -0.097 +16° 09' 01.40" 1.000E-01 0.500 F 0.315 0.245 18.8 V 0.70 0.39 c 691 0.55 Yes Yes
2005UH3 O C 2005-10-26.48976 1.000E-05 10:01:34.910 1.500E-01 0.500 F 0.298 -0.424 +16° 11' 00.40" 1.000E-01 0.500 F 0.315 -0.739 18.4 V 0.70 -0.01 c 691 1.77 Yes Yes
2005UG5 O C 2005-10-27.10680 1.000E-05 00:28:14.890 1.500E-01 0.500 F -0.146 -0.186 +00° 37' 57.20" 1.000E-01 0.500 F 0.347 -0.005 20.9 V 0.70 -0.40 c 691 0.38 Yes Yes
2005UG5 O C 2005-10-27.12226 1.000E-05 00:28:10.900 1.500E-01 0.500 F -0.146 0.582 +00° 37' 52.30" 1.000E-01 0.500 F 0.347 -0.336 21.0 V 0.70 -0.30 c 691 1.37 Yes Yes
2005UG5 O C 2005-10-27.13767 1.000E-05 00:28:06.820 1.500E-01 0.500 F -0.146 0.154 +00° 37' 47.60" 1.000E-01 0.500 F 0.347 -0.482 20.9 V 0.70 -0.40 c 691 1.02 Yes Yes
2005UH5 O C t 2005-10-27.26221 1.000E-05 02:57:10.190 1.500E-01 0.500 F -0.024 -0.110 +18° 28' 37.90" 1.000E-01 0.500 F 0.424 2.138 20.1 V 0.70 0.77 c 691 3.41 No Yes
2005UH5 O C t 2005-10-27.27956 1.000E-05 02:56:56.790 1.500E-01 0.500 F -0.024 -1.968 +18° 38' 08.60" 1.000E-01 0.500 F 0.424 5.445 19.7 V 0.70 0.37 c 691 9.25 No Yes
2005UH5 O C t 2005-10-27.29699 1.000E-05 02:56:43.500 1.500E-01 0.500 F -0.136 0.014 +18° 47' 33.10" 1.000E-01 0.500 F 0.409 0.112 19.5 V 0.70 0.17 c 691 0.32 Yes Yes
2005UM5 O C 2005-10-27.31675 1.000E-05 03:22:53.770 1.500E-01 0.500 F 0.063 -0.007 +12° 05' 34.60" 1.000E-01 0.500 F 0.272 -0.338 20.9 V 0.70 -0.18 c 691 0.68 Yes Yes
2005UM5 O C 2005-10-27.33411 1.000E-05 03:22:50.380 1.500E-01 0.500 F 0.063 0.155 +12° 05' 25.30" 1.000E-01 0.500 F 0.272 -0.265 20.9 V 0.70 -0.18 c 691 0.62 Yes Yes
2005UM5 O C 2005-10-27.35144 1.000E-05 03:22:46.960 1.500E-01 0.500 F 0.038 -0.168 +12° 05' 15.70" 1.000E-01 0.500 F 0.352 -0.554 21.5 V 0.70 0.42 c 691 1.17 Yes Yes
2005OW O C 2005-10-27.49292 1.000E-05 02:51:36.240 1.500E-01 0.500 F -0.309 -0.303 +21° 40' 54.70" 1.000E-01 0.500 F 0.490 -0.149 20.3 V 0.70 0.43 c 691 0.70 Yes Yes
2005OW O C 2005-10-27.51023 1.000E-05 02:51:35.210 1.500E-01 0.500 F -0.309 -0.074 +21° 40' 43.10" 1.000E-01 0.500 F 0.490 -0.092 20.5 V 0.70 0.63 c 691 0.24 Yes Yes
2005OW O C 2005-10-27.52748 1.000E-05 02:51:34.150 1.500E-01 0.500 F -0.309 -0.540 +21° 40' 31.10" 1.000E-01 0.500 F 0.490 -0.438 20.7 V 0.70 0.83 c 691 1.43 Yes Yes
2002VU94 O C 2005-10-28.25202 1.000E-05 03:27:22.350 1.500E-01 0.500 F 0.075 -0.018 +18° 40' 56.70" 1.000E-01 0.500 F 0.377 -0.222 19.7 V 0.70 0.16 c 691 0.45 Yes Yes
2002VU94 O C 2005-10-28.26940 1.000E-05 03:27:21.110 1.500E-01 0.500 F 0.075 0.146 +18° 40' 50.20" 1.000E-01 0.500 F 0.377 -0.190 19.6 V 0.70 0.06 c 691 0.48 Yes Yes
2002VU94 O C 2005-10-28.28678 1.000E-05 03:27:19.850 1.500E-01 0.500 F 0.075 0.052 +18° 40' 43.60" 1.000E-01 0.500 F 0.377 -0.243 19.7 V 0.70 0.16 c 691 0.50 Yes Yes
2005UL6 O C t 2005-10-29.21089 1.000E-05 02:31:19.180 1.500E-01 0.500 F -0.254 0.212 +18° 10' 14.30" 1.000E-01 0.500 F 0.451 0.188 19.7 V 0.70 0.04 c 691 0.60 Yes Yes
2005UL6 O C t 2005-10-29.22821 1.000E-05 02:31:25.720 1.500E-01 0.500 F -0.254 -0.298 +18° 10' 33.40" 1.000E-01 0.500 F 0.451 -0.079 19.8 V 0.70 0.14 c 691 0.66 Yes Yes
2005UL6 O C t 2005-10-29.24544 1.000E-05 02:31:32.300 1.500E-01 0.500 F -0.254 1.017 +18° 10' 52.70" 1.000E-01 0.500 F 0.451 0.315 19.8 V 0.70 0.14 c 691 2.28 Yes Yes
2005UW6 O C 2005-10-29.37475 1.000E-05 04:28:27.730 1.500E-01 0.500 F 0.002 0.378 +25° 31' 03.60" 1.000E-01 0.500 F 0.245 -0.011 20.9 V 0.70 0.00 c 691 0.81 Yes Yes
1999YB O C 2005-10-29.37972 1.000E-05 04:32:44.020 1.500E-01 0.500 F -0.008 -0.138 +27° 30' 59.20" 1.000E-01 0.500 F 0.234 -0.252 19.0 V 0.70 0.11 c 691 0.58 Yes Yes
2005UW6 O C 2005-10-29.39236 1.000E-05 04:28:29.700 1.500E-01 0.500 F 0.002 0.123 +25° 31' 18.70" 1.000E-01 0.500 F 0.245 0.049 21.4 V 0.70 0.50 c 691 0.28 Yes Yes
1999YB O C I 2005-10-29.39729 1.000E-05 04:32:42.850 1.500E-01 0.500 F -0.008 0.603 +27° 31' 10.50" 1.000E-01 0.500 F 0.234 -1.655 18.4 V 0.70 -0.49 c 691 3.52 No Yes
2005UW6 O C 2005-10-29.40998 1.000E-05 04:28:31.700 1.500E-01 0.500 F 0.002 0.226 +25° 31' 33.70" 1.000E-01 0.500 F 0.245 0.112 20.7 V 0.70 -0.20 c 691 0.54 Yes Yes
1999YB O C 2005-10-29.41495 1.000E-05 04:32:41.540 1.500E-01 0.500 F -0.008 -0.418 +27° 31' 24.70" 1.000E-01 0.500 F 0.234 -0.134 19.0 V 0.70 0.12 c 691 0.88 Yes Yes
2005UR64 O C 2005-10-31.12489 1.000E-05 01:32:23.190 1.500E-01 0.500 F -0.040 0.111 +11° 13' 08.00" 1.000E-01 0.500 F 0.327 0.136 20.9 V 0.70 0.49 c 691 0.38 Yes Yes
2005TR15 O C 2005-10-31.12733 1.000E-05 01:34:46.920 1.500E-01 0.500 F 0.046 -1.522 +10° 17' 52.40" 1.000E-01 0.500 F 0.300 -0.557 21.3 V 0.70 -0.25 c 691 3.22 No Yes
2002TW55 O C 2005-10-31.13244 1.000E-05 01:33:35.990 1.500E-01 0.500 F -0.200 0.061 +07° 07' 05.90" 1.000E-01 0.500 F 0.315 0.055 18.6 V 0.70 0.67 c 691 0.17 Yes Yes
2005UR64 O C 2005-10-31.13769 1.000E-05 01:32:22.810 1.500E-01 0.500 F -0.040 0.217 +11° 13' 37.80" 1.000E-01 0.500 F 0.327 -0.288 20.3 V 0.70 -0.11 c 691 0.77 Yes Yes
2005TR15 O C 2005-10-31.14023 1.000E-05 01:34:46.130 1.500E-01 0.500 F 0.046 -0.754 +10° 17' 46.50" 1.000E-01 0.500 F 0.300 0.016 21.6 V 0.70 0.05 c 691 1.52 Yes Yes
2002TW55 O C 2005-10-31.14525 1.000E-05 01:33:31.560 1.500E-01 0.500 F -0.200 -0.167 +07° 07' 43.80" 1.000E-01 0.500 F 0.315 0.066 18.5 V 0.70 0.57 c 691 0.37 Yes Yes
2005UR64 O C 2005-10-31.15053 1.000E-05 01:32:22.400 1.500E-01 0.500 F -0.040 0.142 +11° 14' 08.60" 1.000E-01 0.500 F 0.327 0.223 20.7 V 0.70 0.29 c 691 0.57 Yes Yes
2005TR15 O C 2005-10-31.15298 1.000E-05 01:34:45.300 1.500E-01 0.500 F 0.046 -0.696 +10° 17' 39.80" 1.000E-01 0.500 F 0.300 -0.282 21.5 V 0.70 -0.05 c 691 1.51 Yes Yes
2002TW55 O C 2005-10-31.15802 1.000E-05 01:33:27.140 1.500E-01 0.500 F -0.200 -0.428 +07° 08' 21.60" 1.000E-01 0.500 F 0.315 0.128 18.5 V 0.70 0.57 c 691 0.92 Yes Yes
2005UV64 O C t 2005-10-31.29580 1.000E-05 03:10:21.640 1.500E-01 0.500 F -0.177 0.410 +12° 02' 02.00" 1.000E-01 0.500 F 0.342 -0.581 21.3 V 0.70 1.47 c 691 1.49 Yes Yes
2005UM5 O C 2005-10-31.29580 1.000E-05 03:10:23.340 1.500E-01 0.500 F -0.096 -0.522 +11° 29' 41.80" 1.000E-01 0.500 F 0.353 -0.326 20.9 V 0.70 -0.09 c 691 1.25 Yes Yes
2005UV64 O C t 2005-10-31.31317 1.000E-05 03:10:17.370 1.500E-01 0.500 F -0.177 0.233 +11° 58' 37.50" 1.000E-01 0.500 F 0.342 -0.813 20.3 V 0.70 0.48 c 691 1.78 Yes Yes
2005UM5 O C 2005-10-31.31317 1.000E-05 03:10:20.060 1.500E-01 0.500 F -0.096 0.190 +11° 29' 33.10" 1.000E-01 0.500 F 0.353 0.237 20.9 V 0.70 -0.09 c 691 0.62 Yes Yes
2005UV64 O C t 2005-10-31.33055 1.000E-05 03:10:13.060 1.500E-01 0.500 F -0.177 -0.088 +11° 55' 11.10" 1.000E-01 0.500 F 0.342 -1.947 20.6 V 0.70 0.78 c 691 3.71 No Yes
2005UM5 O C 2005-10-31.33055 1.000E-05 03:10:16.710 1.500E-01 0.500 F -0.096 -0.088 +11° 29' 23.30" 1.000E-01 0.500 F 0.353 -0.265 20.7 V 0.70 -0.29 c 691 0.57 Yes Yes
2005UP156 O C 2005-10-31.34437 1.000E-05 03:56:22.480 1.500E-01 0.500 F -0.040 0.092 +15° 57' 49.90" 1.000E-01 0.500 F 0.537 -0.078 20.1 V 0.70 -0.20 c 691 0.24 Yes Yes
2005UP156 O C 2005-10-31.36174 1.000E-05 03:56:21.120 1.500E-01 0.500 F -0.040 0.146 +15° 57' 43.90" 1.000E-01 0.500 F 0.537 0.015 20.1 V 0.70 -0.20 c 691 0.29 Yes Yes
2005UP156 O C 2005-10-31.37914 1.000E-05 03:56:19.760 1.500E-01 0.500 F -0.040 0.240 +15° 57' 37.80" 1.000E-01 0.500 F 0.537 0.037 20.1 V 0.70 -0.20 c 691 0.49 Yes Yes
2002TW55 O C 2005-11-01.12295 1.000E-05 01:28:07.300 1.500E-01 0.500 F -0.152 -0.006 +07° 54' 32.80" 1.000E-01 0.500 F 0.262 -0.164 18.6 V 0.70 0.56 c 691 0.33 Yes Yes
2002TW55 O C 2005-11-01.13832 1.000E-05 01:28:02.240 1.500E-01 0.500 F -0.152 -0.385 +07° 55' 15.90" 1.000E-01 0.500 F 0.262 -0.210 18.6 V 0.70 0.56 c 691 0.90 Yes Yes
2002TW55 O C 2005-11-01.15369 1.000E-05 01:27:57.200 1.500E-01 0.500 F -0.152 -0.433 +07° 55' 59.00" 1.000E-01 0.500 F 0.262 -0.208 18.5 V 0.70 0.46 c 691 0.98 Yes Yes
2002VU94 O C 2005-11-01.29464 1.000E-05 03:22:32.360 1.500E-01 0.500 F 0.032 0.083 +18° 14' 47.30" 1.000E-01 0.500 F 0.404 -0.169 19.4 V 0.70 -0.07 c 691 0.38 Yes Yes
2002VU94 O C 2005-11-01.31196 1.000E-05 03:22:31.070 1.500E-01 0.500 F 0.032 0.060 +18° 14' 40.60" 1.000E-01 0.500 F 0.404 -0.044 19.5 V 0.70 0.04 c 691 0.15 Yes Yes
2002VU94 O C 2005-11-01.32927 1.000E-05 03:22:29.790 1.500E-01 0.500 F 0.032 0.178 +18° 14' 33.60" 1.000E-01 0.500 F 0.404 -0.208 19.4 V 0.70 -0.06 c 691 0.55 Yes Yes
Oze O C 2005-11-01.46774 1.000E-05 09:34:17.950 1.500E-01 0.500 F 0.475 -0.099 +12° 02' 43.30" 1.000E-01 0.500 F 0.292 -0.203 19.3 V 0.70 0.06 c 691 0.45 Yes Yes
Oze O C 2005-11-01.48025 1.000E-05 09:34:18.700 1.500E-01 0.500 F 0.475 0.018 +12° 02' 38.10" 1.000E-01 0.500 F 0.292 -0.105 19.3 V 0.70 0.06 c 691 0.21 Yes Yes
Oze O C 2005-11-01.49269 1.000E-05 09:34:19.430 1.500E-01 0.500 F 0.475 -0.081 +12° 02' 32.80" 1.000E-01 0.500 F 0.292 -0.134 19.2 V 0.70 -0.04 c 691 0.31 Yes Yes
2005VH1 O C 2005-11-03.18928 1.000E-05 02:16:41.910 1.500E-01 0.500 F -0.106 -0.747 +09° 22' 05.70" 1.000E-01 0.500 F 0.453 -1.130 20.4 V 0.70 -0.34 c 691 2.78 Yes Yes
2005VH1 O C 2005-11-03.20658 1.000E-05 02:16:42.090 1.500E-01 0.500 F -0.106 0.276 +09° 22' 42.60" 1.000E-01 0.500 F 0.453 -0.041 20.9 V 0.70 0.17 c 691 0.57 Yes Yes
2005VH1 O C 2005-11-03.22397 1.000E-05 02:16:42.220 1.500E-01 0.500 F -0.106 0.736 +09° 23' 18.50" 1.000E-01 0.500 F 0.453 -0.115 20.9 V 0.70 0.17 c 691 1.53 Yes Yes
2005UH O C 2005-11-03.24644 1.000E-05 03:21:12.100 1.500E-01 0.500 F -0.075 -0.408 +23° 15' 18.30" 1.000E-01 0.500 F 0.329 0.318 20.6 V 0.70 -0.11 c 691 1.08 Yes Yes
2005UE O C 2005-11-03.25630 1.000E-05 03:19:17.890 1.500E-01 0.500 F -0.129 -0.156 +22° 28' 00.50" 1.000E-01 0.500 F 0.464 -0.172 19.2 V 0.70 0.25 c 691 0.47 Yes Yes
2005UH O C 2005-11-03.26395 1.000E-05 03:21:10.040 1.500E-01 0.500 F -0.075 0.771 +23° 15' 47.00" 1.000E-01 0.500 F 0.329 0.000 20.3 V 0.70 -0.41 c 691 1.61 Yes Yes
2005UE O C 2005-11-03.27381 1.000E-05 03:19:19.080 1.500E-01 0.500 F -0.129 -0.106 +22° 27' 46.10" 1.000E-01 0.500 F 0.464 -0.200 19.3 V 0.70 0.35 c 691 0.46 Yes Yes
2005UH O C 2005-11-03.28141 1.000E-05 03:21:07.800 1.500E-01 0.500 F -0.075 -0.414 +23° 16' 16.10" 1.000E-01 0.500 F 0.329 0.386 20.8 V 0.70 0.08 c 691 1.18 Yes Yes
2005UE O C 2005-11-03.29132 1.000E-05 03:19:20.260 1.500E-01 0.500 F -0.129 -0.087 +22° 27' 31.80" 1.000E-01 0.500 F 0.464 -0.011 19.3 V 0.70 0.35 c 691 0.18 Yes Yes
2001XE1 O C 2005-11-04.21620 1.000E-05 02:41:52.600 1.500E-01 0.500 F -0.050 -0.119 +24° 05' 42.10" 1.000E-01 0.500 F 0.301 -0.029 20.2 V 0.70 0.56 c 691 0.25 Yes Yes
2005UA6 O C 2005-11-04.22598 1.000E-05 03:02:43.760 1.500E-01 0.500 F -0.093 0.650 +22° 39' 05.00" 1.000E-01 0.500 F 0.425 0.060 19.5 V 0.70 0.46 c 691 1.35 Yes Yes
2005UL6 O C 2005-11-04.23850 1.000E-05 03:00:03.340 1.500E-01 0.500 F -0.019 0.343 +19° 10' 06.50" 1.000E-01 0.500 F 0.392 0.028 20.8 V 0.70 0.26 c 691 0.71 Yes Yes
2001XE1 O C 2005-11-04.24118 1.000E-05 02:41:50.500 1.500E-01 0.500 F -0.050 -0.101 +24° 04' 54.90" 1.000E-01 0.500 F 0.301 -0.002 20.2 V 0.70 0.56 c 691 0.21 Yes Yes
2005UA6 O C 2005-11-04.25098 1.000E-05 03:02:44.590 1.500E-01 0.500 F -0.093 -0.031 +22° 40' 21.30" 1.000E-01 0.500 F 0.425 0.013 19.0 V 0.70 -0.04 c 691 0.07 Yes Yes
2005UL6 O C 2005-11-04.26344 1.000E-05 03:00:07.510 1.500E-01 0.500 F -0.019 0.112 +19° 10' 15.60" 1.000E-01 0.500 F 0.392 -0.156 20.5 V 0.70 -0.04 c 691 0.39 Yes Yes
2001XE1 O C 2005-11-04.26618 1.000E-05 02:41:48.370 1.500E-01 0.500 F -0.050 -0.355 +24° 04' 07.20" 1.000E-01 0.500 F 0.301 -0.298 19.8 V 0.70 0.16 c 691 0.94 Yes Yes
2005UA6 O C 2005-11-04.27599 1.000E-05 03:02:45.410 1.500E-01 0.500 F -0.128 -0.053 +22° 41' 36.60" 1.000E-01 0.500 F 0.181 0.105 19.0 V 0.70 -0.05 c 691 0.25 Yes Yes
2005UL6 O C 2005-11-04.28838 1.000E-05 03:00:11.640 1.500E-01 0.500 F -0.019 -0.028 +19° 10' 24.30" 1.000E-01 0.500 F 0.392 -0.214 20.4 V 0.70 -0.14 c 691 0.44 Yes Yes
2005VM1 O C 2005-11-04.36848 1.000E-05 03:52:46.840 1.500E-01 0.559 F 0.037 0.815 +18° 06' 20.50" 1.000E-01 0.559 F 0.308 -0.418 20.2 V 0.70 -0.41 c 691 1.77 Yes Yes
2005UP156 O C 2005-11-04.37586 1.000E-05 03:51:08.210 1.500E-01 0.500 F -0.195 0.065 +15° 34' 00.90" 1.000E-01 0.500 F 0.430 -0.076 20.2 V 0.70 -0.03 c 691 0.20 Yes Yes
2005VM1 O C 2005-11-04.38703 1.000E-05 03:52:41.150 1.500E-01 0.559 F 0.037 0.414 +18° 08' 42.60" 1.000E-01 0.559 F 0.308 0.302 20.5 V 0.70 -0.11 c 691 0.97 Yes Yes
2005UP156 O C 2005-11-04.39448 1.000E-05 03:51:06.690 1.500E-01 0.500 F -0.195 0.132 +15° 33' 54.60" 1.000E-01 0.500 F 0.430 0.302 20.0 V 0.70 -0.23 c 691 0.66 Yes Yes
2005VM1 O C 2005-11-04.40441 1.000E-05 03:52:35.900 1.500E-01 0.559 F 0.037 1.150 +18° 10' 52.60" 1.000E-01 0.559 F 0.308 -2.037 20.4 V 0.70 -0.21 c 691 3.94 No Yes
2005UP156 O C 2005-11-04.41186 1.000E-05 03:51:05.260 1.500E-01 0.500 F -0.195 0.016 +15° 33' 48.10" 1.000E-01 0.500 F 0.430 0.054 20.0 V 0.70 -0.23 c 691 0.11 Yes Yes
2005VM1 O C t 2005-11-04.47851 1.000E-05 03:52:13.350 1.500E-01 0.559 F 0.037 0.436 +18° 20' 16.90" 1.000E-01 0.559 F 0.308 -0.711 20.7 V 0.70 0.09 c 691 1.60 Yes Yes
2005VM1 O C t 2005-11-04.48159 1.000E-05 03:52:12.390 1.500E-01 0.559 F 0.037 0.003 +18° 20' 41.40" 1.000E-01 0.559 F 0.308 0.428 20.6 V 0.70 -0.01 c 691 0.81 Yes Yes
2005VA O C 2005-11-05.08918 1.000E-05 00:13:59.000 1.500E-01 0.500 F -0.022 0.280 +00° 59' 33.90" 1.000E-01 0.500 F 0.496 -0.167 20.0 V 0.70 0.35 c 691 0.68 Yes Yes
2005VA O C 2005-11-05.10709 1.000E-05 00:14:08.880 1.500E-01 0.500 F -0.022 0.248 +01° 00' 15.20" 1.000E-01 0.500 F 0.496 -0.529 20.0 V 0.70 0.35 c 691 1.21 Yes Yes
2005VA O C 2005-11-05.12507 1.000E-05 00:14:18.760 1.500E-01 0.500 F -0.022 0.117 +01° 00' 57.20" 1.000E-01 0.500 F 0.496 -0.345 19.5 V 0.70 -0.15 c 691 0.75 Yes Yes
2005UK O C 2005-11-06.09786 1.000E-05 02:22:54.060 1.500E-01 0.612 F -0.181 0.193 +18° 00' 14.40" 1.000E-01 0.612 F 0.504 -0.320 20.7 V 0.70 -0.34 c 691 0.61 Yes Yes
2005UK O C 2005-11-06.10026 1.000E-05 02:22:53.840 1.500E-01 0.612 F -0.181 0.075 +18° 00' 11.30" 1.000E-01 0.612 F 0.504 -0.010 20.8 V 0.70 -0.24 c 691 0.13 Yes Yes
2005UK O C 2005-11-06.11855 1.000E-05 02:22:52.230 1.500E-01 0.612 F -0.181 0.150 +17° 59' 45.00" 1.000E-01 0.612 F 0.504 -0.322 20.6 V 0.70 -0.44 c 691 0.58 Yes Yes
2005UK O C 2005-11-06.12095 1.000E-05 02:22:51.990 1.500E-01 0.612 F -0.181 -0.246 +17° 59' 41.70" 1.000E-01 0.612 F 0.504 -0.211 20.6 V 0.70 -0.44 c 691 0.53 Yes Yes

[1-200] [201-400] [401-600] [601-800] [801-1000] [1001-1200] [1201-1400] [1401-1600] [1601-1800] [1801-2000] [2001-2200] [2201-2400] [2401-2600] [2601-2800] [2801-3000] [3001-3200] [3201-3400] [3401-3600] [3601-3800] [3801-4000] [4001-4200] [4201-4400] [4401-4600] [4601-4800] [4801-5000] [5001-5200] [5201-5400] [5401-5600] [5601-5800] [5801-6000] [6001-6200] [6201-6400] [6401-6600] [6601-6800] [6801-7000] [7001-7200] [7201-7400] [7401-7600] [7601-7800] [7801-8000] [8001-8200] [8201-8400] [8401-8600] [8601-8800] [8801-9000] [9001-9200] [9201-9400] [9401-9600] [9601-9800] [9801-10000] [10001-10200] [10201-10400] [10401-10600] [10601-10800] [10801-11000] [11001-11200] [11201-11400] [11401-11600] [11601-11800] [11801-12000] [12001-12200] [12201-12400] [12401-12600] [12601-12800] [12801-13000] [13001-13200] [13201-13400] [13401-13600] [13601-13800] [13801-14000] [14001-14200] [14201-14400] [14401-14600] [14601-14800] [14801-15000] [15001-15200] [15201-15400] [15401-15600] [15601-15800] [15801-16000] [16001-16200] [16201-16400] [16401-16600] [16601-16800] [16801-17000] [17001-17200] [17201-17400] [17401-17600] [17601-17800] [17801-18000] [18001-18200] [18201-18400] [18401-18600] [18601-18800] [18801-19000] [19001-19200] [19201-19400] [19401-19600] [19601-19800] [19801-20000] [20001-20200] [20201-20400] [20401-20600] [20601-20800] [20801-21000] [21001-21200] [21201-21400] [21401-21600] [21601-21800] [21801-22000] [22001-22200] [22201-22400] [22401-22600] [22601-22800] [22801-23000] [23001-23200] [23201-23400] [23401-23600] [23601-23800] [23801-24000] [24001-24200] [24201-24400] [24401-24600] [24601-24800] [24801-25000] [25001-25200] [25201-25400] [25401-25600] [25601-25800] [25801-26000] [26001-26200] [26201-26400] [26401-26600] [26601-26800] [26801-27000] [27001-27200] [27201-27400] [27401-27600] [27601-27800] [27801-28000] [28001-28200] [28201-28400] [28401-28600] [28601-28800] [28801-29000] [29001-29200] [29201-29400] [29401-29600] [29601-29800] [29801-30000] [30001-30200] [30201-30400] [30401-30600] [30601-30800] [30801-31000] [31001-31200] [31201-31400] [31401-31600] [31601-31800] [31801-32000] [32001-32200] [32201-32400] [32401-32600] [32601-32800] [32801-33000] [33001-33200] [33201-33400] [33401-33600] [33601-33800] [33801-34000] [34001-34200] [34201-34400] [34401-34600] [34601-34800] [34801-35000] [35001-35200] [35201-35400] [35401-35600] [35601-35800] [35801-36000] [36001-36200] [36201-36400] [36401-36600] [36601-36800] [36801-37000] [37001-37200] [37201-37400] [37401-37600] [37601-37800] [37801-38000] [38001-38200] [38201-38400] [38401-38600] [38601-38800] [38801-39000] [39001-39200] [39201-39400] [39401-39600] [39601-39800] [39801-40000] [40001-40200] [40201-40400] [40401-40600] [40601-40800] [40801-41000] [41001-41200] [41201-41400] [41401-41600] [41601-41800] [41801-42000] [42001-42200] [42201-42400] [42401-42600] [42601-42800] [42801-43000] [43001-43200] [43201-43400] [43401-43600] [43601-43800] [43801-44000] [44001-44200] [44201-44400] [44401-44600] [44601-44800] [44801-45000] [45001-45200] [45201-45400] [45401-45600] [45601-45800] [45801-46000] [46001-46200] [46201-46400] [46401-46600] [46601-46800] [46801-47000] [47001-47200] [47201-47400] [47401-47600] [47601-47800] [47801-48000] [48001-48200] [48201-48400] [48401-48600] [48601-48800] [48801-49000] [49001-49200] [49201-49400] [49401-49600] [49601-49800] [49801-50000] [50001-50200] [50201-50388]